createdAt,value
2019-05-18T00:02:01.562Z,99512.16
2019-05-18T00:07:04.047Z,99512.11
2019-05-18T00:12:06.492Z,99519.09
2019-05-18T00:17:23.193Z,99518.26
2019-05-18T00:22:11.383Z,99506.73
2019-05-18T00:27:13.844Z,99500.10
2019-05-18T00:32:16.272Z,99498.78
2019-05-18T00:37:18.798Z,99495.45
2019-05-18T00:42:21.195Z,99489.67
2019-05-18T00:47:23.652Z,99491.78
2019-05-18T00:52:26.103Z,99485.77
2019-05-18T00:57:28.563Z,99484.19
2019-05-18T01:02:31.019Z,99479.93
2019-05-18T01:07:33.477Z,99472.86
2019-05-18T01:12:35.973Z,99474.32
2019-05-18T01:17:38.379Z,99478.66
2019-05-18T01:22:40.837Z,99466.17
2019-05-18T01:27:43.331Z,99472.36
2019-05-18T01:32:45.795Z,99471.88
2019-05-18T01:37:48.239Z,99473.20
2019-05-18T01:42:50.710Z,99476.58
2019-05-18T01:47:53.192Z,99474.20
2019-05-18T01:52:55.648Z,99469.84
2019-05-18T01:57:58.108Z,99470.58
2019-05-18T02:03:00.558Z,99473.79
2019-05-18T02:08:03.014Z,99467.89
2019-05-18T02:13:05.476Z,99466.53
2019-05-18T02:18:07.937Z,99471.28
2019-05-18T02:23:10.391Z,99477.66
2019-05-18T02:28:12.845Z,99472.16
2019-05-18T02:33:15.303Z,99474.66
2019-05-18T02:38:17.766Z,99479.19
2019-05-18T02:43:20.216Z,99479.44
2019-05-18T02:48:22.673Z,99470.70
2019-05-18T02:53:25.155Z,99470.95
2019-05-18T02:58:27.616Z,99479.92
2019-05-18T03:03:30.094Z,99469.92
2019-05-18T03:08:32.553Z,99478.27
2019-05-18T03:13:35.021Z,99472.59
2019-05-18T03:18:37.487Z,99464.93
2019-05-18T03:23:39.943Z,99465.59
2019-05-18T03:28:42.445Z,99469.41
2019-05-18T03:33:44.923Z,99469.31
2019-05-18T03:38:47.386Z,99475.48
2019-05-18T03:43:49.847Z,99472.94
2019-05-18T03:48:52.305Z,99473.19
2019-05-18T03:53:54.869Z,99472.27
2019-05-18T03:58:57.322Z,99472.58
2019-05-18T04:03:59.815Z,99473.95
2019-05-18T04:09:02.276Z,99486.01
2019-05-18T04:14:08.119Z,99489.70
2019-05-18T04:19:07.234Z,99486.72
2019-05-18T04:24:09.689Z,99485.91
2019-05-18T04:29:12.259Z,99488.21
2019-05-18T04:34:14.693Z,99489.74
2019-05-18T04:39:17.159Z,99492.91
2019-05-18T04:44:19.631Z,99493.38
2019-05-18T04:49:22.092Z,99497.95
2019-05-18T04:54:24.561Z,99496.81
2019-05-18T04:59:27.109Z,99503.72
2019-05-18T05:04:29.564Z,99508.98
2019-05-18T05:09:32.022Z,99501.57
2019-05-18T05:14:34.491Z,99502.64
2019-05-18T05:19:36.954Z,99502.19
2019-05-18T05:24:39.413Z,99514.28
2019-05-18T05:29:41.882Z,99518.09
2019-05-18T05:34:44.334Z,99521.98
2019-05-18T05:39:46.792Z,99525.42
2019-05-18T05:44:49.251Z,99521.77
2019-05-18T05:49:51.721Z,99516.02
2019-05-18T05:54:54.172Z,99523.44
2019-05-18T05:59:56.682Z,99529.95
2019-05-18T06:04:59.158Z,99535.53
2019-05-18T06:10:01.608Z,99537.16
2019-05-18T06:15:07.021Z,99531.88
2019-05-18T06:20:09.491Z,99533.75
2019-05-18T06:25:11.966Z,99536.15
2019-05-18T06:30:14.420Z,99539.45
2019-05-18T06:35:16.890Z,99533.70
2019-05-18T06:40:19.404Z,99537.78
2019-05-18T06:45:21.862Z,99545.22
2019-05-18T06:50:27.453Z,99545.73
2019-05-18T06:55:29.922Z,99543.17
2019-05-18T07:00:32.420Z,99549.31
2019-05-18T07:05:34.892Z,99555.47
2019-05-18T07:10:37.359Z,99550.09
2019-05-18T07:15:39.817Z,99545.09
2019-05-18T07:20:42.279Z,99549.28
2019-05-18T07:25:44.756Z,99544.27
2019-05-18T07:30:47.260Z,99539.61
2019-05-18T07:35:49.729Z,99541.11
2019-05-18T07:40:52.225Z,99534.84
2019-05-18T07:45:54.678Z,99537.33
2019-05-18T07:50:57.141Z,99536.35
2019-05-18T07:55:59.609Z,99540.98
2019-05-18T08:01:02.083Z,99537.20
2019-05-18T08:06:04.556Z,99540.36
2019-05-18T08:11:07.062Z,99547.20
2019-05-18T08:16:09.526Z,99544.98
2019-05-18T08:21:12.042Z,99547.68
2019-05-18T08:26:14.499Z,99552.23
2019-05-18T08:31:17.107Z,99542.83
2019-05-18T08:36:19.568Z,99545.40
2019-05-18T08:41:22.034Z,99540.86
2019-05-18T08:46:24.544Z,99539.72
2019-05-18T08:51:27.057Z,99530.88
2019-05-18T08:56:29.569Z,99511.74
2019-05-18T09:01:32.012Z,99517.73
2019-05-18T09:06:34.507Z,99516.32
2019-05-18T09:11:36.985Z,99512.98
2019-05-18T09:16:39.663Z,99515.86
2019-05-18T09:21:42.143Z,99511.38
2019-05-18T09:26:44.638Z,99513.08
2019-05-18T09:31:47.142Z,99501.09
2019-05-18T09:36:49.604Z,99507.34
2019-05-18T09:41:52.077Z,99503.89
2019-05-18T09:46:54.609Z,99497.45
2019-05-18T09:51:57.061Z,99492.63
2019-05-18T09:56:59.526Z,99491.26
2019-05-18T10:02:02.000Z,99485.06
2019-05-18T10:07:04.472Z,99484.73
2019-05-18T10:12:07.133Z,99493.95
2019-05-18T10:17:09.590Z,99480.22
2019-05-18T10:22:12.073Z,99475.75
2019-05-18T10:27:14.535Z,99475.84
2019-05-18T10:32:17.003Z,99472.81
2019-05-18T10:37:19.482Z,99472.56
2019-05-18T10:42:21.973Z,99468.99
2019-05-18T10:47:24.436Z,99469.20
2019-05-18T10:52:27.059Z,99457.97
2019-05-18T10:57:29.489Z,99445.08
2019-05-18T11:02:31.944Z,99444.53
2019-05-18T11:07:34.419Z,99445.19
2019-05-18T11:12:36.889Z,99445.91
2019-05-18T11:17:39.355Z,99437.22
2019-05-18T11:22:41.818Z,99437.45
2019-05-18T11:27:44.253Z,99425.38
2019-05-18T11:32:46.852Z,99424.95
2019-05-18T11:37:49.324Z,99426.15
2019-05-18T11:42:51.812Z,99415.69
2019-05-18T11:47:54.267Z,99409.27
2019-05-18T11:52:56.722Z,99407.81
2019-05-18T11:57:59.177Z,99411.14
2019-05-18T12:03:01.696Z,99415.81
2019-05-18T12:08:04.175Z,99409.29
2019-05-18T12:13:06.659Z,99402.67
2019-05-18T12:18:09.145Z,99404.88
2019-05-18T12:23:11.632Z,99407.16
2019-05-18T12:28:14.146Z,99404.47
2019-05-18T12:33:16.644Z,99397.95
2019-05-18T12:38:19.148Z,99385.23
2019-05-18T12:43:21.598Z,99377.64
2019-05-18T12:48:25.830Z,99368.39
2019-05-18T12:53:26.539Z,99363.48
2019-05-18T12:58:29.005Z,99353.28
2019-05-18T13:03:31.587Z,99353.57
2019-05-18T13:08:34.039Z,99346.44
2019-05-18T13:13:36.518Z,99348.86
2019-05-18T13:18:39.007Z,99345.27
2019-05-18T13:23:41.482Z,99333.81
2019-05-18T13:28:44.003Z,99331.95
2019-05-18T13:33:46.488Z,99328.97
2019-05-18T13:38:48.983Z,99329.46
2019-05-18T13:43:51.456Z,99318.52
2019-05-18T13:48:53.923Z,99313.23
2019-05-18T13:53:56.391Z,99314.89
2019-05-18T13:58:58.865Z,99310.16
2019-05-18T14:04:01.339Z,99296.55
2019-05-18T14:09:03.813Z,99303.06
2019-05-18T14:14:06.268Z,99299.08
2019-05-18T14:19:08.734Z,99300.70
2019-05-18T14:24:11.197Z,99297.35
2019-05-18T14:29:13.659Z,99297.61
2019-05-18T14:34:16.118Z,99299.16
2019-05-18T14:39:18.589Z,99291.95
2019-05-18T14:44:21.079Z,99292.61
2019-05-18T14:49:23.545Z,99307.94
2019-05-18T14:54:26.047Z,99315.37
2019-05-18T14:59:28.505Z,99327.89
2019-05-18T15:04:30.989Z,99315.00
2019-05-18T15:09:33.436Z,99325.73
2019-05-18T15:14:35.915Z,99330.12
2019-05-18T15:19:38.359Z,99323.20
2019-05-18T15:24:40.878Z,99334.27
2019-05-18T15:29:43.355Z,99326.98
2019-05-18T15:34:45.872Z,99332.27
2019-05-18T15:39:48.333Z,99341.41
2019-05-18T15:44:50.889Z,99343.59
2019-05-18T15:49:53.383Z,99363.94
2019-05-18T15:54:55.964Z,99370.33
2019-05-18T15:59:58.425Z,99374.08
2019-05-18T16:05:00.900Z,99374.27
2019-05-18T16:10:03.374Z,99377.41
2019-05-18T16:15:08.566Z,99378.28
2019-05-18T16:20:11.048Z,99387.72
2019-05-18T16:25:13.507Z,99383.58
2019-05-18T16:30:15.963Z,99393.14
2019-05-18T16:35:18.442Z,99383.23
2019-05-18T16:40:20.918Z,99364.30
2019-05-18T16:45:23.394Z,99359.05
2019-05-18T16:50:25.922Z,99358.79
2019-05-18T16:55:28.371Z,99352.13
2019-05-18T17:00:30.853Z,99360.63
2019-05-18T17:05:33.309Z,99363.27
2019-05-18T17:10:35.778Z,99379.11
2019-05-18T17:15:38.263Z,99378.95
2019-05-18T17:20:40.708Z,99386.56
2019-05-18T17:25:43.186Z,99401.17
2019-05-18T17:30:45.675Z,99406.99
2019-05-18T17:35:59.809Z,99408.80
2019-05-18T17:40:50.653Z,99418.16
2019-05-18T17:45:53.133Z,99430.64
2019-05-18T17:50:55.601Z,99443.89
2019-05-18T17:55:58.067Z,99441.72
2019-05-18T18:01:00.529Z,99431.61
2019-05-18T18:06:02.997Z,99428.99
2019-05-18T18:11:05.488Z,99420.52
2019-05-18T18:16:07.969Z,99419.66
2019-05-18T18:21:10.436Z,99414.26
2019-05-18T18:26:12.901Z,99442.80
2019-05-18T18:31:15.388Z,99459.17
2019-05-18T18:36:17.853Z,99474.74
2019-05-18T18:41:20.346Z,99473.53
2019-05-18T18:46:22.838Z,99472.08
2019-05-18T18:51:25.621Z,99471.52
2019-05-18T18:56:27.881Z,99478.62
2019-05-18T19:01:30.351Z,99485.32
2019-05-18T19:06:32.834Z,99493.67
2019-05-18T19:11:35.326Z,99488.13
2019-05-18T19:16:37.823Z,99490.72
2019-05-18T19:21:40.310Z,99487.81
2019-05-18T19:26:42.811Z,99489.27
2019-05-18T19:31:45.279Z,99495.06
2019-05-18T19:36:47.825Z,99513.33
2019-05-18T19:41:50.280Z,99518.99
2019-05-18T19:46:52.757Z,99520.02
2019-05-18T19:51:55.214Z,99538.37
2019-05-18T19:56:57.763Z,99546.06
2019-05-18T20:02:00.200Z,99550.78
2019-05-18T20:07:02.681Z,99546.55
2019-05-18T20:12:05.129Z,99548.71
2019-05-18T20:17:07.635Z,99545.64
2019-05-18T20:22:10.080Z,99552.12
2019-05-18T20:27:12.552Z,99545.73
2019-05-18T20:32:15.022Z,99543.23
2019-05-18T20:37:17.487Z,99533.83
2019-05-18T20:42:19.949Z,99531.58
2019-05-18T20:47:22.444Z,99526.90
2019-05-18T20:52:24.899Z,99525.91
2019-05-18T20:57:27.356Z,99518.56
2019-05-18T21:02:29.829Z,99515.78
2019-05-18T21:07:32.292Z,99510.21
2019-05-18T21:12:34.755Z,99513.62
2019-05-18T21:17:37.240Z,99508.89
2019-05-18T21:22:39.704Z,99504.00
2019-05-18T21:27:42.170Z,99499.95
2019-05-18T21:32:44.619Z,99496.86
2019-05-18T21:37:47.098Z,99497.22
2019-05-18T21:42:49.582Z,99499.77
2019-05-18T21:47:52.050Z,99502.38
2019-05-18T21:52:54.539Z,99495.55
2019-05-18T21:57:56.993Z,99494.38
2019-05-18T22:03:00.862Z,99497.20
2019-05-18T22:08:01.954Z,99492.66
2019-05-18T22:13:04.402Z,99490.14
2019-05-18T22:18:06.871Z,99486.27
2019-05-18T22:23:09.421Z,99490.89
2019-05-18T22:34:19.971Z,99470.94
2019-05-18T22:39:22.456Z,99468.60
2019-05-18T22:44:24.971Z,99465.45
2019-05-18T22:49:27.458Z,99457.52
2019-05-18T22:54:29.937Z,99457.25
2019-05-18T22:59:32.418Z,99466.28
2019-05-18T23:04:34.991Z,99463.88
2019-05-18T23:09:37.398Z,99463.68
2019-05-18T23:14:39.894Z,99450.50
2019-05-18T23:19:42.386Z,99448.00
2019-05-18T23:24:44.953Z,99457.00
2019-05-18T23:29:47.350Z,99455.03
2019-05-18T23:34:49.824Z,99441.28
2019-05-18T23:39:52.305Z,99438.06
2019-05-18T23:44:54.789Z,99441.33
2019-05-18T23:49:57.281Z,99434.22
2019-05-18T23:54:59.769Z,99438.47
